sensor_id;sensor_type;location;lat;lon;timestamp;pressure;altitude;pressure_sealevel;temperature;humidity
61345;BME280;47216;42.656;23.232;2023-02-13T00:00:46;95577.53;;;-1.83;74.36
61345;BME280;47216;42.656;23.232;2023-02-13T00:03:14;95572.06;;;-1.69;74.56
61345;BME280;47216;42.656;23.232;2023-02-13T00:05:40;95575.28;;;-1.77;74.97
61345;BME280;47216;42.656;23.232;2023-02-13T00:08:07;95579.78;;;-1.90;75.43
61345;BME280;47216;42.656;23.232;2023-02-13T00:10:33;95575.63;;;-1.91;75.33
61345;BME280;47216;42.656;23.232;2023-02-13T00:13:00;95582.75;;;-1.85;75.37
61345;BME280;47216;42.656;23.232;2023-02-13T00:15:26;95577.75;;;-1.65;75.50
61345;BME280;47216;42.656;23.232;2023-02-13T00:17:53;95571.47;;;-1.52;75.28
61345;BME280;47216;42.656;23.232;2023-02-13T00:20:21;95574.31;;;-1.45;74.77
61345;BME280;47216;42.656;23.232;2023-02-13T00:22:47;95572.16;;;-1.40;75.15
61345;BME280;47216;42.656;23.232;2023-02-13T00:25:14;95568.28;;;-1.34;74.74
61345;BME280;47216;42.656;23.232;2023-02-13T00:27:41;95574.91;;;-1.22;74.97
61345;BME280;47216;42.656;23.232;2023-02-13T00:30:07;95581.50;;;-1.19;74.53
61345;BME280;47216;42.656;23.232;2023-02-13T00:32:34;95579.22;;;-1.22;73.86
61345;BME280;47216;42.656;23.232;2023-02-13T00:35:00;95578.97;;;-1.19;73.89
61345;BME280;47216;42.656;23.232;2023-02-13T00:37:28;95582.59;;;-1.12;73.61
61345;BME280;47216;42.656;23.232;2023-02-13T00:39:55;95580.31;;;-1.06;73.83
61345;BME280;47216;42.656;23.232;2023-02-13T00:42:22;95574.53;;;-0.98;73.40
61345;BME280;47216;42.656;23.232;2023-02-13T00:44:50;95578.47;;;-0.84;73.23
61345;BME280;47216;42.656;23.232;2023-02-13T00:47:17;95581.41;;;-0.79;72.96
61345;BME280;47216;42.656;23.232;2023-02-13T00:49:43;95582.78;;;-0.85;72.69
61345;BME280;47216;42.656;23.232;2023-02-13T00:52:10;95581.69;;;-1.01;72.56
61345;BME280;47216;42.656;23.232;2023-02-13T00:54:38;95585.84;;;-1.00;72.85
61345;BME280;47216;42.656;23.232;2023-02-13T00:57:05;95596.09;;;-1.10;73.60
61345;BME280;47216;42.656;23.232;2023-02-13T00:59:31;95596.91;;;-1.00;73.43
61345;BME280;47216;42.656;23.232;2023-02-13T01:01:57;95600.00;;;-1.06;72.93
61345;BME280;47216;42.656;23.232;2023-02-13T01:04:24;95599.72;;;-1.03;72.53
61345;BME280;47216;42.656;23.232;2023-02-13T01:06:50;95599.94;;;-1.25;72.72
61345;BME280;47216;42.656;23.232;2023-02-13T01:09:17;95598.03;;;-1.43;74.34
61345;BME280;47216;42.656;23.232;2023-02-13T01:11:45;95602.31;;;-1.43;74.58
61345;BME280;47216;42.656;23.232;2023-02-13T01:14:11;95601.97;;;-1.60;74.49
61345;BME280;47216;42.656;23.232;2023-02-13T01:16:38;95600.69;;;-1.54;74.77
61345;BME280;47216;42.656;23.232;2023-02-13T01:19:04;95600.13;;;-1.48;74.29
61345;BME280;47216;42.656;23.232;2023-02-13T01:21:31;95597.44;;;-1.56;74.23
61345;BME280;47216;42.656;23.232;2023-02-13T01:24:01;95605.19;;;-1.67;74.55
61345;BME280;47216;42.656;23.232;2023-02-13T01:26:27;95601.94;;;-1.70;75.26
61345;BME280;47216;42.656;23.232;2023-02-13T01:28:55;95604.78;;;-1.73;75.30
61345;BME280;47216;42.656;23.232;2023-02-13T01:31:22;95597.34;;;-1.76;75.34
61345;BME280;47216;42.656;23.232;2023-02-13T01:33:49;95615.00;;;-1.73;75.28
61345;BME280;47216;42.656;23.232;2023-02-13T01:36:16;95615.91;;;-1.74;75.05
61345;BME280;47216;42.656;23.232;2023-02-13T01:38:42;95613.44;;;-1.85;75.61
61345;BME280;47216;42.656;23.232;2023-02-13T01:41:09;95606.72;;;-1.86;75.89
61345;BME280;47216;42.656;23.232;2023-02-13T01:43:42;95612.94;;;-1.79;75.47
61345;BME280;47216;42.656;23.232;2023-02-13T01:46:11;95610.03;;;-1.64;75.07
61345;BME280;47216;42.656;23.232;2023-02-13T01:48:38;95623.75;;;-1.75;75.14
61345;BME280;47216;42.656;23.232;2023-02-13T01:51:05;95609.09;;;-1.94;75.31
61345;BME280;47216;42.656;23.232;2023-02-13T01:53:34;95613.44;;;-1.85;76.24
61345;BME280;47216;42.656;23.232;2023-02-13T01:56:04;95617.25;;;-1.79;75.91
61345;BME280;47216;42.656;23.232;2023-02-13T01:58:34;95621.03;;;-1.74;75.62
61345;BME280;47216;42.656;23.232;2023-02-13T02:01:01;95626.41;;;-1.77;75.63
61345;BME280;47216;42.656;23.232;2023-02-13T02:03:30;95623.06;;;-1.77;76.30
61345;BME280;47216;42.656;23.232;2023-02-13T02:05:58;95617.03;;;-1.66;75.37
61345;BME280;47216;42.656;23.232;2023-02-13T02:08:25;95629.09;;;-1.78;75.71
61345;BME280;47216;42.656;23.232;2023-02-13T02:10:52;95625.19;;;-1.82;76.28
61345;BME280;47216;42.656;23.232;2023-02-13T02:13:20;95626.69;;;-1.80;76.60
61345;BME280;47216;42.656;23.232;2023-02-13T02:15:47;95622.00;;;-1.75;76.29
61345;BME280;47216;42.656;23.232;2023-02-13T02:18:14;95614.81;;;-1.81;76.64
61345;BME280;47216;42.656;23.232;2023-02-13T02:20:52;95615.63;;;-1.80;76.17
61345;BME280;47216;42.656;23.232;2023-02-13T02:26:21;95610.34;;;-1.58;76.21
61345;BME280;47216;42.656;23.232;2023-02-13T02:29:05;95622.75;;;-1.53;75.99
61345;BME280;47216;42.656;23.232;2023-02-13T02:31:51;95614.69;;;-1.49;75.68
61345;BME280;47216;42.656;23.232;2023-02-13T02:34:26;95612.53;;;-1.43;75.17
61345;BME280;47216;42.656;23.232;2023-02-13T02:37:10;95608.25;;;-1.43;75.93
61345;BME280;47216;42.656;23.232;2023-02-13T02:39:43;95611.19;;;-1.48;75.35
61345;BME280;47216;42.656;23.232;2023-02-13T02:42:17;95608.78;;;-1.39;75.75
61345;BME280;47216;42.656;23.232;2023-02-13T02:44:48;95619.81;;;-1.39;75.69
61345;BME280;47216;42.656;23.232;2023-02-13T02:47:22;95624.22;;;-1.20;74.73
61345;BME280;47216;42.656;23.232;2023-02-13T02:50:11;95624.22;;;-1.20;74.29
61345;BME280;47216;42.656;23.232;2023-02-13T02:52:41;95634.97;;;-1.26;74.71
61345;BME280;47216;42.656;23.232;2023-02-13T02:55:13;95636.69;;;-1.36;74.81
61345;BME280;47216;42.656;23.232;2023-02-13T02:57:44;95637.78;;;-1.29;75.16
61345;BME280;47216;42.656;23.232;2023-02-13T03:00:31;95644.13;;;-1.23;75.49
61345;BME280;47216;42.656;23.232;2023-02-13T03:03:18;95638.75;;;-1.20;74.48
61345;BME280;47216;42.656;23.232;2023-02-13T03:06:03;95636.88;;;-1.18;74.50
61345;BME280;47216;42.656;23.232;2023-02-13T03:08:38;95642.16;;;-1.10;74.94
61345;BME280;47216;42.656;23.232;2023-02-13T03:11:34;95638.25;;;-0.95;74.05
61345;BME280;47216;42.656;23.232;2023-02-13T03:14:19;95637.47;;;-0.86;74.42
61345;BME280;47216;42.656;23.232;2023-02-13T03:16:46;95634.91;;;-0.86;73.85
61345;BME280;47216;42.656;23.232;2023-02-13T03:19:37;95631.81;;;-0.89;74.66
61345;BME280;47216;42.656;23.232;2023-02-13T03:22:27;95631.84;;;-0.79;74.56
61345;BME280;47216;42.656;23.232;2023-02-13T03:24:59;95635.75;;;-0.75;74.54
61345;BME280;47216;42.656;23.232;2023-02-13T03:27:33;95640.19;;;-0.87;74.26
61345;BME280;47216;42.656;23.232;2023-02-13T03:30:22;95630.47;;;-0.93;75.44
61345;BME280;47216;42.656;23.232;2023-02-13T03:32:54;95634.50;;;-0.81;74.72
61345;BME280;47216;42.656;23.232;2023-02-13T03:35:25;95638.31;;;-0.66;74.83
61345;BME280;47216;42.656;23.232;2023-02-13T03:38:14;95640.59;;;-0.63;74.53
61345;BME280;47216;42.656;23.232;2023-02-13T03:40:44;95647.25;;;-0.60;74.75
61345;BME280;47216;42.656;23.232;2023-02-13T03:43:34;95641.84;;;-0.37;73.82
61345;BME280;47216;42.656;23.232;2023-02-13T03:46:02;95643.19;;;-0.43;73.44
61345;BME280;47216;42.656;23.232;2023-02-13T03:48:29;95641.84;;;-0.37;73.50
61345;BME280;47216;42.656;23.232;2023-02-13T03:51:17;95632.94;;;-0.33;72.91
61345;BME280;47216;42.656;23.232;2023-02-13T03:53:45;95640.50;;;-0.41;73.41
61345;BME280;47216;42.656;23.232;2023-02-13T03:56:13;95635.09;;;-0.48;73.19
61345;BME280;47216;42.656;23.232;2023-02-13T03:58:59;95639.41;;;-0.58;74.38
61345;BME280;47216;42.656;23.232;2023-02-13T04:01:41;95630.22;;;-0.71;74.13
61345;BME280;47216;42.656;23.232;2023-02-13T04:04:09;95623.34;;;-0.70;74.31
61345;BME280;47216;42.656;23.232;2023-02-13T04:06:39;95630.63;;;-0.66;74.97
61345;BME280;47216;42.656;23.232;2023-02-13T04:09:09;95630.75;;;-0.67;75.14
61345;BME280;47216;42.656;23.232;2023-02-13T04:11:36;95636.56;;;-0.65;75.14
61345;BME280;47216;42.656;23.232;2023-02-13T04:14:06;95630.22;;;-0.51;74.84
61345;BME280;47216;42.656;23.232;2023-02-13T04:16:34;95643.47;;;-0.36;74.36
61345;BME280;47216;42.656;23.232;2023-02-13T04:19:02;95639.69;;;-0.32;73.83
61345;BME280;47216;42.656;23.232;2023-02-13T04:21:31;95639.94;;;-0.26;73.94
61345;BME280;47216;42.656;23.232;2023-02-13T04:23:59;95643.72;;;-0.39;74.09
61345;BME280;47216;42.656;23.232;2023-02-13T04:26:27;95651.84;;;-0.34;73.72
61345;BME280;47216;42.656;23.232;2023-02-13T04:28:55;95651.28;;;-0.38;74.27
61345;BME280;47216;42.656;23.232;2023-02-13T04:31:22;95651.16;;;-0.36;74.73
61345;BME280;47216;42.656;23.232;2023-02-13T04:33:48;95645.06;;;-0.35;74.29
61345;BME280;47216;42.656;23.232;2023-02-13T04:36:15;95649.94;;;-0.32;74.51
61345;BME280;47216;42.656;23.232;2023-02-13T04:38:41;95643.31;;;-0.35;74.26
61345;BME280;47216;42.656;23.232;2023-02-13T04:41:10;95636.69;;;-0.37;74.24
61345;BME280;47216;42.656;23.232;2023-02-13T04:43:37;95638.34;;;-0.46;75.39
61345;BME280;47216;42.656;23.232;2023-02-13T04:46:04;95635.22;;;-0.40;74.50
61345;BME280;47216;42.656;23.232;2023-02-13T04:48:30;95632.13;;;-0.63;75.93
61345;BME280;47216;42.656;23.232;2023-02-13T04:50:57;95634.28;;;-0.58;75.77
61345;BME280;47216;42.656;23.232;2023-02-13T04:53:24;95634.69;;;-0.73;75.63
61345;BME280;47216;42.656;23.232;2023-02-13T04:55:50;95638.03;;;-0.72;75.85
61345;BME280;47216;42.656;23.232;2023-02-13T04:58:18;95637.91;;;-0.80;76.61
61345;BME280;47216;42.656;23.232;2023-02-13T05:00:45;95638.25;;;-0.95;76.31
61345;BME280;47216;42.656;23.232;2023-02-13T05:03:11;95648.88;;;-1.09;77.50
61345;BME280;47216;42.656;23.232;2023-02-13T05:05:38;95650.63;;;-1.10;77.61
61345;BME280;47216;42.656;23.232;2023-02-13T05:08:06;95660.47;;;-1.05;77.05
61345;BME280;47216;42.656;23.232;2023-02-13T05:10:32;95653.38;;;-1.01;76.84
61345;BME280;47216;42.656;23.232;2023-02-13T05:12:59;95663.34;;;-0.98;77.13
61345;BME280;47216;42.656;23.232;2023-02-13T05:15:27;95665.72;;;-1.07;76.73
61345;BME280;47216;42.656;23.232;2023-02-13T05:17:54;95664.66;;;-1.04;77.20
61345;BME280;47216;42.656;23.232;2023-02-13T05:20:20;95666.97;;;-1.01;77.46
61345;BME280;47216;42.656;23.232;2023-02-13T05:22:47;95669.78;;;-1.04;77.62
61345;BME280;47216;42.656;23.232;2023-02-13T05:25:33;95665.78;;;-0.97;76.84
61345;BME280;47216;42.656;23.232;2023-02-13T05:28:00;95666.81;;;-0.99;77.04
61345;BME280;47216;42.656;23.232;2023-02-13T05:30:28;95671.69;;;-1.06;77.35
61345;BME280;47216;42.656;23.232;2023-02-13T05:32:53;95679.50;;;-0.98;76.70
61345;BME280;47216;42.656;23.232;2023-02-13T05:35:20;95672.78;;;-0.99;76.58
61345;BME280;47216;42.656;23.232;2023-02-13T05:37:47;95676.81;;;-0.96;76.80
61345;BME280;47216;42.656;23.232;2023-02-13T05:40:13;95675.16;;;-1.07;76.97
61345;BME280;47216;42.656;23.232;2023-02-13T05:42:40;95671.22;;;-1.11;77.42
61345;BME280;47216;42.656;23.232;2023-02-13T05:45:08;95675.56;;;-1.02;76.87
61345;BME280;47216;42.656;23.232;2023-02-13T05:47:36;95678.66;;;-1.08;77.14
61345;BME280;47216;42.656;23.232;2023-02-13T05:50:03;95675.22;;;-0.88;77.72
61345;BME280;47216;42.656;23.232;2023-02-13T05:52:29;95679.00;;;-0.82;77.34
61345;BME280;47216;42.656;23.232;2023-02-13T05:54:56;95681.97;;;-0.87;76.82
61345;BME280;47216;42.656;23.232;2023-02-13T05:57:22;95680.09;;;-0.85;76.08
61345;BME280;47216;42.656;23.232;2023-02-13T05:59:49;95685.19;;;-0.94;77.02
61345;BME280;47216;42.656;23.232;2023-02-13T06:02:15;95690.59;;;-0.88;76.44
61345;BME280;47216;42.656;23.232;2023-02-13T06:04:43;95683.72;;;-0.77;76.42
61345;BME280;47216;42.656;23.232;2023-02-13T06:07:10;95692.78;;;-0.73;75.61
61345;BME280;47216;42.656;23.232;2023-02-13T06:09:36;95687.94;;;-0.57;76.06
61345;BME280;47216;42.656;23.232;2023-02-13T06:12:03;95694.69;;;-0.56;75.25
61345;BME280;47216;42.656;23.232;2023-02-13T06:14:29;95695.13;;;-0.51;75.03
61345;BME280;47216;42.656;23.232;2023-02-13T06:16:56;95691.03;;;-0.63;74.91
61345;BME280;47216;42.656;23.232;2023-02-13T06:19:22;95697.91;;;-0.54;75.31
61345;BME280;47216;42.656;23.232;2023-02-13T06:21:50;95701.44;;;-0.45;75.32
61345;BME280;47216;42.656;23.232;2023-02-13T06:24:17;95701.44;;;-0.35;74.56
61345;BME280;47216;42.656;23.232;2023-02-13T06:26:43;95699.84;;;-0.36;74.55
61345;BME280;47216;42.656;23.232;2023-02-13T06:29:10;95702.13;;;-0.33;74.54
61345;BME280;47216;42.656;23.232;2023-02-13T06:31:37;95709.53;;;-0.30;74.39
61345;BME280;47216;42.656;23.232;2023-02-13T06:34:03;95706.84;;;-0.19;74.34
61345;BME280;47216;42.656;23.232;2023-02-13T06:36:30;95711.84;;;-0.08;73.78
61345;BME280;47216;42.656;23.232;2023-02-13T06:38:57;95712.78;;;0.11;73.46
61345;BME280;47216;42.656;23.232;2023-02-13T06:41:24;95710.75;;;0.05;72.98
61345;BME280;47216;42.656;23.232;2023-02-13T06:43:51;95708.75;;;-0.02;73.28
61345;BME280;47216;42.656;23.232;2023-02-13T06:46:17;95714.66;;;0.09;72.82
61345;BME280;47216;42.656;23.232;2023-02-13T06:48:43;95711.19;;;0.10;72.99
61345;BME280;47216;42.656;23.232;2023-02-13T06:51:10;95715.50;;;0.19;73.07
61345;BME280;47216;42.656;23.232;2023-02-13T06:53:36;95719.00;;;0.08;72.92
61345;BME280;47216;42.656;23.232;2023-02-13T06:56:05;95714.94;;;0.15;73.39
61345;BME280;47216;42.656;23.232;2023-02-13T06:58:31;95718.84;;;0.29;73.36
61345;BME280;47216;42.656;23.232;2023-02-13T07:00:58;95709.50;;;0.38;73.28
61345;BME280;47216;42.656;23.232;2023-02-13T07:03:25;95705.72;;;0.52;73.23
61345;BME280;47216;42.656;23.232;2023-02-13T07:05:51;95706.47;;;0.62;73.16
61345;BME280;47216;42.656;23.232;2023-02-13T07:08:18;95712.13;;;0.75;72.64
61345;BME280;47216;42.656;23.232;2023-02-13T07:10:45;95701.84;;;0.75;72.46
61345;BME280;47216;42.656;23.232;2023-02-13T07:13:12;95699.91;;;0.87;71.98
61345;BME280;47216;42.656;23.232;2023-02-13T07:15:39;95704.53;;;0.83;72.16
61345;BME280;47216;42.656;23.232;2023-02-13T07:18:06;95710.91;;;0.79;72.14
61345;BME280;47216;42.656;23.232;2023-02-13T07:20:32;95699.09;;;0.87;72.42
61345;BME280;47216;42.656;23.232;2023-02-13T07:22:59;95713.97;;;0.83;72.36
61345;BME280;47216;42.656;23.232;2023-02-13T07:25:26;95713.66;;;0.96;72.58
61345;BME280;47216;42.656;23.232;2023-02-13T07:27:52;95717.81;;;1.07;71.89
61345;BME280;47216;42.656;23.232;2023-02-13T07:30:20;95720.69;;;0.94;71.98
61345;BME280;47216;42.656;23.232;2023-02-13T07:32:47;95719.31;;;1.09;71.91
61345;BME280;47216;42.656;23.232;2023-02-13T07:35:15;95713.69;;;1.23;71.29
61345;BME280;47216;42.656;23.232;2023-02-13T07:37:41;95718.91;;;1.32;70.96
61345;BME280;47216;42.656;23.232;2023-02-13T07:40:08;95720.22;;;1.36;70.78
61345;BME280;47216;42.656;23.232;2023-02-13T07:42:35;95707.81;;;1.31;70.71
61345;BME280;47216;42.656;23.232;2023-02-13T07:45:01;95714.06;;;1.29;70.68
61345;BME280;47216;42.656;23.232;2023-02-13T07:47:31;95717.91;;;1.15;71.03
61345;BME280;47216;42.656;23.232;2023-02-13T07:49:58;95711.22;;;0.94;71.83
61345;BME280;47216;42.656;23.232;2023-02-13T07:52:24;95716.06;;;1.07;71.59
61345;BME280;47216;42.656;23.232;2023-02-13T07:54:51;95710.38;;;1.03;71.32
61345;BME280;47216;42.656;23.232;2023-02-13T07:57:17;95715.63;;;1.12;71.26
61345;BME280;47216;42.656;23.232;2023-02-13T07:59:44;95705.16;;;1.23;71.18
61345;BME280;47216;42.656;23.232;2023-02-13T08:02:11;95703.47;;;1.32;71.43
61345;BME280;47216;42.656;23.232;2023-02-13T08:04:39;95707.13;;;1.39;70.18
61345;BME280;47216;42.656;23.232;2023-02-13T08:07:10;95719.19;;;1.29;70.88
61345;BME280;47216;42.656;23.232;2023-02-13T08:09:37;95712.44;;;1.28;70.72
61345;BME280;47216;42.656;23.232;2023-02-13T08:12:20;95719.50;;;1.25;70.93
61345;BME280;47216;42.656;23.232;2023-02-13T08:14:47;95717.66;;;1.36;70.35
61345;BME280;47216;42.656;23.232;2023-02-13T08:17:14;95710.19;;;1.42;69.89
61345;BME280;47216;42.656;23.232;2023-02-13T08:19:42;95707.28;;;1.55;69.99
61345;BME280;47216;42.656;23.232;2023-02-13T08:22:08;95703.84;;;1.64;69.63
61345;BME280;47216;42.656;23.232;2023-02-13T08:24:35;95693.84;;;1.61;69.48
61345;BME280;47216;42.656;23.232;2023-02-13T08:27:01;95700.28;;;1.47;69.80
61345;BME280;47216;42.656;23.232;2023-02-13T08:29:28;95710.72;;;1.46;70.05
61345;BME280;47216;42.656;23.232;2023-02-13T08:31:54;95681.81;;;1.16;69.91
61345;BME280;47216;42.656;23.232;2023-02-13T08:34:21;95702.34;;;1.44;69.78
61345;BME280;47216;42.656;23.232;2023-02-13T08:36:49;95703.16;;;1.44;70.20
61345;BME280;47216;42.656;23.232;2023-02-13T08:39:15;95705.59;;;1.46;70.08
61345;BME280;47216;42.656;23.232;2023-02-13T08:41:41;95704.03;;;1.53;69.87
61345;BME280;47216;42.656;23.232;2023-02-13T08:44:08;95703.09;;;1.72;69.31
61345;BME280;47216;42.656;23.232;2023-02-13T08:46:35;95698.84;;;1.81;69.18
61345;BME280;47216;42.656;23.232;2023-02-13T08:49:02;95705.53;;;1.92;68.72
61345;BME280;47216;42.656;23.232;2023-02-13T08:51:28;95707.06;;;2.02;68.77
61345;BME280;47216;42.656;23.232;2023-02-13T08:53:56;95710.22;;;2.14;67.75
61345;BME280;47216;42.656;23.232;2023-02-13T08:56:23;95712.34;;;2.19;68.05
61345;BME280;47216;42.656;23.232;2023-02-13T08:58:50;95709.28;;;1.97;67.96
61345;BME280;47216;42.656;23.232;2023-02-13T09:01:19;95706.94;;;2.04;68.40
61345;BME280;47216;42.656;23.232;2023-02-13T09:03:45;95704.41;;;2.12;67.40
61345;BME280;47216;42.656;23.232;2023-02-13T09:06:12;95707.19;;;2.19;67.92
61345;BME280;47216;42.656;23.232;2023-02-13T09:08:38;95696.91;;;2.01;67.35
61345;BME280;47216;42.656;23.232;2023-02-13T09:11:06;95703.25;;;2.06;67.96
61345;BME280;47216;42.656;23.232;2023-02-13T09:13:33;95699.44;;;2.10;68.35
61345;BME280;47216;42.656;23.232;2023-02-13T09:16:02;95702.47;;;2.32;67.33
61345;BME280;47216;42.656;23.232;2023-02-13T09:18:29;95696.78;;;2.46;66.30
61345;BME280;47216;42.656;23.232;2023-02-13T09:20:56;95704.47;;;2.64;66.46
61345;BME280;47216;42.656;23.232;2023-02-13T09:23:23;95691.06;;;2.61;65.72
61345;BME280;47216;42.656;23.232;2023-02-13T09:25:49;95692.69;;;2.62;67.08
61345;BME280;47216;42.656;23.232;2023-02-13T09:28:17;95689.25;;;2.79;66.26
61345;BME280;47216;42.656;23.232;2023-02-13T09:30:44;95688.94;;;2.82;65.73
61345;BME280;47216;42.656;23.232;2023-02-13T09:33:10;95684.75;;;2.81;64.98
61345;BME280;47216;42.656;23.232;2023-02-13T09:35:37;95679.66;;;2.89;65.66
61345;BME280;47216;42.656;23.232;2023-02-13T09:38:05;95685.13;;;2.94;64.80
61345;BME280;47216;42.656;23.232;2023-02-13T09:40:34;95687.84;;;2.59;66.59
61345;BME280;47216;42.656;23.232;2023-02-13T09:43:04;95673.72;;;2.37;66.41
61345;BME280;47216;42.656;23.232;2023-02-13T09:45:33;95676.75;;;2.32;67.38
61345;BME280;47216;42.656;23.232;2023-02-13T09:48:00;95673.16;;;2.51;67.29
61345;BME280;47216;42.656;23.232;2023-02-13T09:50:28;95675.94;;;2.58;66.66
61345;BME280;47216;42.656;23.232;2023-02-13T09:52:57;95666.84;;;2.71;67.42
61345;BME280;47216;42.656;23.232;2023-02-13T09:55:26;95664.97;;;2.56;66.67
61345;BME280;47216;42.656;23.232;2023-02-13T09:57:55;95655.09;;;2.77;67.14
61345;BME280;47216;42.656;23.232;2023-02-13T10:00:26;95660.63;;;2.90;66.73
61345;BME280;47216;42.656;23.232;2023-02-13T10:03:12;95649.13;;;3.11;67.01
61345;BME280;47216;42.656;23.232;2023-02-13T10:05:45;95652.69;;;3.10;65.77
61345;BME280;47216;42.656;23.232;2023-02-13T10:08:17;95641.75;;;3.24;65.76
61345;BME280;47216;42.656;23.232;2023-02-13T10:10:49;95634.97;;;3.15;64.87
61345;BME280;47216;42.656;23.232;2023-02-13T10:13:20;95630.97;;;3.37;65.33
61345;BME280;47216;42.656;23.232;2023-02-13T10:15:52;95630.38;;;3.60;64.75
61345;BME280;47216;42.656;23.232;2023-02-13T10:18:22;95630.56;;;3.83;66.14
61345;BME280;47216;42.656;23.232;2023-02-13T10:20:50;95619.28;;;4.00;66.30
61345;BME280;47216;42.656;23.232;2023-02-13T10:23:20;95614.41;;;4.21;65.02
61345;BME280;47216;42.656;23.232;2023-02-13T10:25:49;95614.22;;;4.31;64.00
61345;BME280;47216;42.656;23.232;2023-02-13T10:28:20;95616.47;;;4.42;63.50
61345;BME280;47216;42.656;23.232;2023-02-13T10:30:51;95606.63;;;4.46;61.92
61345;BME280;47216;42.656;23.232;2023-02-13T10:33:22;95596.28;;;4.46;61.52
61345;BME280;47216;42.656;23.232;2023-02-13T10:35:52;95599.06;;;4.28;62.75
61345;BME280;47216;42.656;23.232;2023-02-13T10:38:22;95594.06;;;4.35;62.59
61345;BME280;47216;42.656;23.232;2023-02-13T10:40:58;95591.81;;;4.24;61.61
61345;BME280;47216;42.656;23.232;2023-02-13T10:43:29;95586.84;;;4.14;61.95
61345;BME280;47216;42.656;23.232;2023-02-13T10:46:01;95587.94;;;4.28;62.78
61345;BME280;47216;42.656;23.232;2023-02-13T10:48:40;95580.81;;;4.30;61.75
61345;BME280;47216;42.656;23.232;2023-02-13T10:51:15;95572.06;;;4.39;62.14
61345;BME280;47216;42.656;23.232;2023-02-13T10:53:48;95572.91;;;4.31;62.41
61345;BME280;47216;42.656;23.232;2023-02-13T10:56:22;95573.03;;;4.46;61.99
61345;BME280;47216;42.656;23.232;2023-02-13T10:58:57;95574.84;;;4.37;61.88
61345;BME280;47216;42.656;23.232;2023-02-13T11:01:31;95572.44;;;4.28;62.28
61345;BME280;47216;42.656;23.232;2023-02-13T11:04:02;95561.63;;;4.24;61.85
61345;BME280;47216;42.656;23.232;2023-02-13T11:06:29;95563.13;;;4.18;61.89
61345;BME280;47216;42.656;23.232;2023-02-13T11:08:56;95562.78;;;4.21;60.66
61345;BME280;47216;42.656;23.232;2023-02-13T11:11:29;95565.94;;;4.40;61.56
61345;BME280;47216;42.656;23.232;2023-02-13T11:14:12;95542.94;;;4.61;61.12
61345;BME280;47216;42.656;23.232;2023-02-13T11:16:40;95550.75;;;4.53;59.85
61345;BME280;47216;42.656;23.232;2023-02-13T11:19:14;95553.53;;;4.35;59.29
61345;BME280;47216;42.656;23.232;2023-02-13T11:21:42;95540.72;;;4.50;59.99
61345;BME280;47216;42.656;23.232;2023-02-13T11:24:15;95534.81;;;4.73;59.66
61345;BME280;47216;42.656;23.232;2023-02-13T11:26:42;95540.25;;;4.86;59.75
61345;BME280;47216;42.656;23.232;2023-02-13T11:29:14;95527.72;;;4.67;58.79
61345;BME280;47216;42.656;23.232;2023-02-13T11:31:42;95525.09;;;4.83;59.31
61345;BME280;47216;42.656;23.232;2023-02-13T11:34:23;95523.13;;;4.85;58.82
61345;BME280;47216;42.656;23.232;2023-02-13T11:36:51;95507.53;;;5.01;58.95
61345;BME280;47216;42.656;23.232;2023-02-13T11:39:18;95510.06;;;5.10;59.12
61345;BME280;47216;42.656;23.232;2023-02-13T11:41:46;95506.50;;;5.11;57.80
61345;BME280;47216;42.656;23.232;2023-02-13T11:44:19;95502.47;;;5.31;57.97
61345;BME280;47216;42.656;23.232;2023-02-13T11:46:47;95496.22;;;5.25;58.82
61345;BME280;47216;42.656;23.232;2023-02-13T11:49:15;95497.25;;;5.39;58.48
61345;BME280;47216;42.656;23.232;2023-02-13T11:51:44;95487.91;;;5.53;57.93
61345;BME280;47216;42.656;23.232;2023-02-13T11:56:56;95472.25;;;5.84;57.30
61345;BME280;47216;42.656;23.232;2023-02-13T11:59:24;95470.25;;;5.95;57.24
61345;BME280;47216;42.656;23.232;2023-02-13T12:02:00;95473.72;;;6.02;56.48
61345;BME280;47216;42.656;23.232;2023-02-13T12:04:27;95460.78;;;6.02;55.84
61345;BME280;47216;42.656;23.232;2023-02-13T12:06:59;95468.31;;;5.88;55.91
61345;BME280;47216;42.656;23.232;2023-02-13T12:09:26;95450.47;;;5.94;56.05
61345;BME280;47216;42.656;23.232;2023-02-13T12:11:53;95458.41;;;5.77;56.07
61345;BME280;47216;42.656;23.232;2023-02-13T12:14:22;95448.63;;;5.87;55.53
61345;BME280;47216;42.656;23.232;2023-02-13T12:16:50;95453.16;;;5.85;54.86
61345;BME280;47216;42.656;23.232;2023-02-13T12:19:21;95455.91;;;5.84;54.99
61345;BME280;47216;42.656;23.232;2023-02-13T12:22:01;95448.34;;;5.82;54.79
61345;BME280;47216;42.656;23.232;2023-02-13T12:24:35;95457.53;;;5.85;55.24
61345;BME280;47216;42.656;23.232;2023-02-13T12:27:07;95448.19;;;5.99;55.60
61345;BME280;47216;42.656;23.232;2023-02-13T12:29:51;95440.88;;;6.17;55.44
61345;BME280;47216;42.656;23.232;2023-02-13T12:32:24;95447.38;;;6.28;53.98
61345;BME280;47216;42.656;23.232;2023-02-13T12:35:07;95444.09;;;6.19;54.31
61345;BME280;47216;42.656;23.232;2023-02-13T12:37:53;95439.63;;;6.13;52.85
61345;BME280;47216;42.656;23.232;2023-02-13T12:40:34;95442.72;;;6.23;53.78
61345;BME280;47216;42.656;23.232;2023-02-13T12:43:11;95434.44;;;6.13;52.67
61345;BME280;47216;42.656;23.232;2023-02-13T12:45:43;95432.56;;;6.22;52.63
61345;BME280;47216;42.656;23.232;2023-02-13T12:48:20;95427.09;;;6.31;51.80
61345;BME280;47216;42.656;23.232;2023-02-13T12:51:02;95419.47;;;6.45;54.80
61345;BME280;47216;42.656;23.232;2023-02-13T12:53:38;95422.19;;;6.58;53.02
61345;BME280;47216;42.656;23.232;2023-02-13T12:56:23;95429.22;;;6.43;51.92
61345;BME280;47216;42.656;23.232;2023-02-13T12:58:57;95416.50;;;6.48;52.56
61345;BME280;47216;42.656;23.232;2023-02-13T13:01:34;95410.06;;;6.59;52.09
61345;BME280;47216;42.656;23.232;2023-02-13T13:04:07;95413.47;;;6.81;51.50
61345;BME280;47216;42.656;23.232;2023-02-13T13:12:17;95402.63;;;6.56;52.30
61345;BME280;47216;42.656;23.232;2023-02-13T13:14:49;95405.25;;;6.77;51.67
61345;BME280;47216;42.656;23.232;2023-02-13T13:17:22;95412.34;;;6.68;51.11
61345;BME280;47216;42.656;23.232;2023-02-13T13:19:53;95407.47;;;6.59;51.53